sensor_id;sensor_type;location;lat;lon;timestamp;P1;durP1;ratioP1;P2;durP2;ratioP2
15192;SDS011;7697;51.630;7.484;2022-10-22T00:04:10;4.65;;;2.38;;
15192;SDS011;7697;51.630;7.484;2022-10-22T00:09:12;2.97;;;2.53;;
15192;SDS011;7697;51.630;7.484;2022-10-22T00:14:16;3.10;;;2.20;;
15192;SDS011;7697;51.630;7.484;2022-10-22T00:19:17;4.32;;;2.95;;
15192;SDS011;7697;51.630;7.484;2022-10-22T00:24:19;2.78;;;2.47;;
15192;SDS011;7697;51.630;7.484;2022-10-22T00:29:22;7.30;;;2.90;;
15192;SDS011;7697;51.630;7.484;2022-10-22T00:34:24;2.72;;;2.30;;
15192;SDS011;7697;51.630;7.484;2022-10-22T00:39:26;4.43;;;2.58;;
15192;SDS011;7697;51.630;7.484;2022-10-22T00:50:06;2.83;;;2.20;;
15192;SDS011;7697;51.630;7.484;2022-10-22T00:55:11;3.17;;;2.33;;
15192;SDS011;7697;51.630;7.484;2022-10-22T01:00:16;2.55;;;2.35;;
15192;SDS011;7697;51.630;7.484;2022-10-22T01:05:18;3.60;;;2.75;;
15192;SDS011;7697;51.630;7.484;2022-10-22T01:10:31;3.03;;;2.38;;
15192;SDS011;7697;51.630;7.484;2022-10-22T01:15:49;6.70;;;2.35;;
15192;SDS011;7697;51.630;7.484;2022-10-22T01:20:58;2.50;;;2.30;;
15192;SDS011;7697;51.630;7.484;2022-10-22T01:26:09;4.20;;;2.25;;
15192;SDS011;7697;51.630;7.484;2022-10-22T01:31:17;2.40;;;2.13;;
15192;SDS011;7697;51.630;7.484;2022-10-22T01:36:21;2.53;;;2.30;;
15192;SDS011;7697;51.630;7.484;2022-10-22T01:41:23;3.08;;;2.40;;
15192;SDS011;7697;51.630;7.484;2022-10-22T01:46:29;2.28;;;1.95;;
15192;SDS011;7697;51.630;7.484;2022-10-22T01:51:37;2.75;;;2.35;;
15192;SDS011;7697;51.630;7.484;2022-10-22T01:56:52;3.05;;;2.20;;
15192;SDS011;7697;51.630;7.484;2022-10-22T02:02:02;3.15;;;2.45;;
15192;SDS011;7697;51.630;7.484;2022-10-22T02:07:08;2.70;;;2.47;;
15192;SDS011;7697;51.630;7.484;2022-10-22T02:12:12;6.10;;;2.60;;
15192;SDS011;7697;51.630;7.484;2022-10-22T02:17:17;3.92;;;2.35;;
15192;SDS011;7697;51.630;7.484;2022-10-22T02:22:21;2.45;;;2.05;;
15192;SDS011;7697;51.630;7.484;2022-10-22T02:27:25;3.28;;;2.05;;
15192;SDS011;7697;51.630;7.484;2022-10-22T02:32:33;2.75;;;2.08;;
15192;SDS011;7697;51.630;7.484;2022-10-22T02:37:39;2.75;;;2.17;;
15192;SDS011;7697;51.630;7.484;2022-10-22T02:42:42;4.07;;;2.28;;
15192;SDS011;7697;51.630;7.484;2022-10-22T02:47:47;2.40;;;2.10;;
15192;SDS011;7697;51.630;7.484;2022-10-22T02:52:49;2.55;;;2.00;;
15192;SDS011;7697;51.630;7.484;2022-10-22T02:57:51;3.13;;;2.03;;
15192;SDS011;7697;51.630;7.484;2022-10-22T03:02:54;5.28;;;2.28;;
15192;SDS011;7697;51.630;7.484;2022-10-22T03:07:55;3.97;;;2.30;;
15192;SDS011;7697;51.630;7.484;2022-10-22T03:12:57;3.42;;;2.20;;
15192;SDS011;7697;51.630;7.484;2022-10-22T03:18:00;2.25;;;2.05;;
15192;SDS011;7697;51.630;7.484;2022-10-22T03:23:01;2.35;;;2.15;;
15192;SDS011;7697;51.630;7.484;2022-10-22T03:28:04;3.05;;;2.38;;
15192;SDS011;7697;51.630;7.484;2022-10-22T03:33:10;2.80;;;2.40;;
15192;SDS011;7697;51.630;7.484;2022-10-22T03:38:12;4.32;;;2.50;;
15192;SDS011;7697;51.630;7.484;2022-10-22T03:43:15;2.80;;;2.50;;
15192;SDS011;7697;51.630;7.484;2022-10-22T03:48:18;3.58;;;2.50;;
15192;SDS011;7697;51.630;7.484;2022-10-22T03:53:20;3.70;;;2.25;;
15192;SDS011;7697;51.630;7.484;2022-10-22T03:58:22;3.83;;;2.33;;
15192;SDS011;7697;51.630;7.484;2022-10-22T04:03:25;2.70;;;2.10;;
15192;SDS011;7697;51.630;7.484;2022-10-22T04:08:26;3.03;;;2.10;;
15192;SDS011;7697;51.630;7.484;2022-10-22T04:13:28;2.40;;;2.20;;
15192;SDS011;7697;51.630;7.484;2022-10-22T04:18:31;3.53;;;2.50;;
15192;SDS011;7697;51.630;7.484;2022-10-22T04:23:32;3.50;;;2.65;;
15192;SDS011;7697;51.630;7.484;2022-10-22T04:28:34;2.33;;;1.98;;
15192;SDS011;7697;51.630;7.484;2022-10-22T04:33:37;2.40;;;2.20;;
15192;SDS011;7697;51.630;7.484;2022-10-22T04:38:41;2.78;;;2.10;;
15192;SDS011;7697;51.630;7.484;2022-10-22T04:43:44;3.00;;;2.30;;
15192;SDS011;7697;51.630;7.484;2022-10-22T04:48:49;4.05;;;2.38;;
15192;SDS011;7697;51.630;7.484;2022-10-22T04:53:51;4.93;;;2.25;;
15192;SDS011;7697;51.630;7.484;2022-10-22T04:58:54;2.55;;;2.30;;
15192;SDS011;7697;51.630;7.484;2022-10-22T05:03:59;3.65;;;2.40;;
15192;SDS011;7697;51.630;7.484;2022-10-22T05:09:03;3.35;;;2.20;;
15192;SDS011;7697;51.630;7.484;2022-10-22T05:14:06;3.25;;;2.65;;
15192;SDS011;7697;51.630;7.484;2022-10-22T05:19:13;3.20;;;2.45;;
15192;SDS011;7697;51.630;7.484;2022-10-22T05:24:18;2.90;;;2.50;;
15192;SDS011;7697;51.630;7.484;2022-10-22T05:29:20;2.40;;;2.15;;
15192;SDS011;7697;51.630;7.484;2022-10-22T05:34:24;4.07;;;2.30;;
15192;SDS011;7697;51.630;7.484;2022-10-22T05:39:26;4.32;;;2.70;;
15192;SDS011;7697;51.630;7.484;2022-10-22T05:44:28;2.83;;;2.60;;
15192;SDS011;7697;51.630;7.484;2022-10-22T05:49:31;3.72;;;3.08;;
15192;SDS011;7697;51.630;7.484;2022-10-22T05:54:32;3.40;;;2.95;;
15192;SDS011;7697;51.630;7.484;2022-10-22T05:59:34;3.75;;;3.22;;
15192;SDS011;7697;51.630;7.484;2022-10-22T06:04:37;4.57;;;3.00;;
15192;SDS011;7697;51.630;7.484;2022-10-22T06:09:39;4.28;;;3.33;;
15192;SDS011;7697;51.630;7.484;2022-10-22T06:14:41;5.95;;;2.95;;
15192;SDS011;7697;51.630;7.484;2022-10-22T06:19:44;4.68;;;3.17;;
15192;SDS011;7697;51.630;7.484;2022-10-22T06:24:46;3.85;;;3.00;;
15192;SDS011;7697;51.630;7.484;2022-10-22T06:29:48;4.70;;;3.22;;
15192;SDS011;7697;51.630;7.484;2022-10-22T06:34:51;4.68;;;3.42;;
15192;SDS011;7697;51.630;7.484;2022-10-22T06:39:52;6.50;;;3.40;;
15192;SDS011;7697;51.630;7.484;2022-10-22T06:44:54;4.90;;;3.10;;
15192;SDS011;7697;51.630;7.484;2022-10-22T06:49:57;5.35;;;3.60;;
15192;SDS011;7697;51.630;7.484;2022-10-22T06:54:59;6.00;;;3.70;;
15192;SDS011;7697;51.630;7.484;2022-10-22T07:00:01;5.25;;;4.10;;
15192;SDS011;7697;51.630;7.484;2022-10-22T07:05:04;7.32;;;3.75;;
15192;SDS011;7697;51.630;7.484;2022-10-22T07:10:07;4.22;;;3.35;;
15192;SDS011;7697;51.630;7.484;2022-10-22T07:15:09;5.80;;;4.45;;
15192;SDS011;7697;51.630;7.484;2022-10-22T07:20:12;5.00;;;4.30;;
15192;SDS011;7697;51.630;7.484;2022-10-22T07:25:15;5.07;;;4.07;;
15192;SDS011;7697;51.630;7.484;2022-10-22T07:30:17;5.80;;;4.35;;
15192;SDS011;7697;51.630;7.484;2022-10-22T07:35:20;5.80;;;4.07;;
15192;SDS011;7697;51.630;7.484;2022-10-22T07:40:21;5.75;;;4.47;;
15192;SDS011;7697;51.630;7.484;2022-10-22T07:45:23;6.13;;;4.90;;
15192;SDS011;7697;51.630;7.484;2022-10-22T07:50:26;6.55;;;4.60;;
15192;SDS011;7697;51.630;7.484;2022-10-22T07:55:28;5.88;;;4.75;;
15192;SDS011;7697;51.630;7.484;2022-10-22T08:00:30;6.88;;;4.40;;
15192;SDS011;7697;51.630;7.484;2022-10-22T08:05:33;7.00;;;4.15;;
15192;SDS011;7697;51.630;7.484;2022-10-22T08:10:35;5.70;;;4.00;;
15192;SDS011;7697;51.630;7.484;2022-10-22T08:15:36;6.28;;;3.88;;
15192;SDS011;7697;51.630;7.484;2022-10-22T08:20:40;5.93;;;3.80;;
15192;SDS011;7697;51.630;7.484;2022-10-22T08:25:42;4.85;;;3.40;;
15192;SDS011;7697;51.630;7.484;2022-10-22T08:30:44;5.03;;;3.60;;
15192;SDS011;7697;51.630;7.484;2022-10-22T08:35:49;4.47;;;3.55;;
15192;SDS011;7697;51.630;7.484;2022-10-22T08:40:52;6.35;;;3.60;;
15192;SDS011;7697;51.630;7.484;2022-10-22T08:46:00;5.63;;;3.72;;
15192;SDS011;7697;51.630;7.484;2022-10-22T08:51:15;11.88;;;3.85;;
15192;SDS011;7697;51.630;7.484;2022-10-22T08:56:20;5.07;;;2.72;;
15192;SDS011;7697;51.630;7.484;2022-10-22T09:01:26;8.02;;;2.63;;
15192;SDS011;7697;51.630;7.484;2022-10-22T09:06:34;5.25;;;2.80;;
15192;SDS011;7697;51.630;7.484;2022-10-22T09:11:39;5.82;;;2.78;;
15192;SDS011;7697;51.630;7.484;2022-10-22T09:16:50;4.93;;;2.60;;
15192;SDS011;7697;51.630;7.484;2022-10-22T09:22:16;4.70;;;2.45;;
15192;SDS011;7697;51.630;7.484;2022-10-22T09:27:26;7.43;;;2.83;;
15192;SDS011;7697;51.630;7.484;2022-10-22T09:32:29;4.57;;;2.30;;
15192;SDS011;7697;51.630;7.484;2022-10-22T09:37:33;6.75;;;2.72;;
15192;SDS011;7697;51.630;7.484;2022-10-22T09:42:35;9.85;;;2.97;;
15192;SDS011;7697;51.630;7.484;2022-10-22T09:47:38;6.80;;;2.17;;
15192;SDS011;7697;51.630;7.484;2022-10-22T09:52:43;7.25;;;2.50;;
15192;SDS011;7697;51.630;7.484;2022-10-22T09:57:47;7.65;;;2.47;;
15192;SDS011;7697;51.630;7.484;2022-10-22T10:02:53;5.47;;;1.98;;
15192;SDS011;7697;51.630;7.484;2022-10-22T10:07:58;4.93;;;1.92;;
15192;SDS011;7697;51.630;7.484;2022-10-22T10:13:15;6.30;;;2.30;;
15192;SDS011;7697;51.630;7.484;2022-10-22T10:18:26;4.55;;;1.75;;
15192;SDS011;7697;51.630;7.484;2022-10-22T10:23:38;9.30;;;2.63;;
15192;SDS011;7697;51.630;7.484;2022-10-22T10:28:51;6.05;;;2.53;;
15192;SDS011;7697;51.630;7.484;2022-10-22T10:34:03;5.53;;;2.40;;
15192;SDS011;7697;51.630;7.484;2022-10-22T10:39:17;6.68;;;2.28;;
15192;SDS011;7697;51.630;7.484;2022-10-22T10:50:11;6.70;;;2.35;;
15192;SDS011;7697;51.630;7.484;2022-10-22T10:55:27;6.20;;;2.45;;
15192;SDS011;7697;51.630;7.484;2022-10-22T11:00:33;4.28;;;1.98;;
15192;SDS011;7697;51.630;7.484;2022-10-22T11:05:41;5.22;;;1.80;;
15192;SDS011;7697;51.630;7.484;2022-10-22T11:10:50;2.50;;;1.75;;
15192;SDS011;7697;51.630;7.484;2022-10-22T11:15:56;3.05;;;1.60;;
15192;SDS011;7697;51.630;7.484;2022-10-22T11:21:06;5.60;;;1.80;;
15192;SDS011;7697;51.630;7.484;2022-10-22T11:26:16;6.05;;;2.42;;
15192;SDS011;7697;51.630;7.484;2022-10-22T11:31:27;4.95;;;1.90;;
15192;SDS011;7697;51.630;7.484;2022-10-22T11:36:31;3.55;;;1.70;;
15192;SDS011;7697;51.630;7.484;2022-10-22T11:41:35;3.58;;;1.90;;
15192;SDS011;7697;51.630;7.484;2022-10-22T11:46:39;3.50;;;1.65;;
15192;SDS011;7697;51.630;7.484;2022-10-22T11:51:45;5.45;;;1.75;;
15192;SDS011;7697;51.630;7.484;2022-10-22T11:56:48;7.15;;;2.22;;
15192;SDS011;7697;51.630;7.484;2022-10-22T12:01:54;3.30;;;1.75;;
15192;SDS011;7697;51.630;7.484;2022-10-22T12:06:57;4.60;;;1.80;;
15192;SDS011;7697;51.630;7.484;2022-10-22T12:12:02;3.78;;;1.60;;
15192;SDS011;7697;51.630;7.484;2022-10-22T12:17:11;7.88;;;2.25;;
15192;SDS011;7697;51.630;7.484;2022-10-22T12:22:19;5.50;;;1.70;;
15192;SDS011;7697;51.630;7.484;2022-10-22T12:27:32;3.10;;;1.70;;
15192;SDS011;7697;51.630;7.484;2022-10-22T12:32:37;4.15;;;1.60;;
15192;SDS011;7697;51.630;7.484;2022-10-22T12:37:40;4.43;;;2.33;;
15192;SDS011;7697;51.630;7.484;2022-10-22T12:42:47;2.72;;;1.45;;
15192;SDS011;7697;51.630;7.484;2022-10-22T12:47:50;4.72;;;1.60;;
15192;SDS011;7697;51.630;7.484;2022-10-22T12:52:55;5.20;;;1.90;;
15192;SDS011;7697;51.630;7.484;2022-10-22T12:57:58;4.13;;;1.60;;
15192;SDS011;7697;51.630;7.484;2022-10-22T13:03:02;3.17;;;1.45;;
15192;SDS011;7697;51.630;7.484;2022-10-22T13:08:07;5.45;;;1.75;;
15192;SDS011;7697;51.630;7.484;2022-10-22T13:18:36;3.42;;;1.60;;
15192;SDS011;7697;51.630;7.484;2022-10-22T13:23:37;3.22;;;1.45;;
15192;SDS011;7697;51.630;7.484;2022-10-22T13:28:40;2.70;;;1.60;;
15192;SDS011;7697;51.630;7.484;2022-10-22T13:33:43;3.17;;;1.40;;
15192;SDS011;7697;51.630;7.484;2022-10-22T13:38:47;4.90;;;1.73;;
15192;SDS011;7697;51.630;7.484;2022-10-22T13:43:50;3.20;;;1.70;;
15192;SDS011;7697;51.630;7.484;2022-10-22T13:48:53;3.00;;;1.40;;
15192;SDS011;7697;51.630;7.484;2022-10-22T13:53:56;4.13;;;1.75;;
15192;SDS011;7697;51.630;7.484;2022-10-22T13:59:03;2.63;;;1.50;;
15192;SDS011;7697;51.630;7.484;2022-10-22T14:04:06;3.08;;;1.45;;
15192;SDS011;7697;51.630;7.484;2022-10-22T14:09:12;4.55;;;1.88;;
15192;SDS011;7697;51.630;7.484;2022-10-22T14:14:17;3.75;;;1.38;;
15192;SDS011;7697;51.630;7.484;2022-10-22T14:19:19;4.22;;;1.65;;
15192;SDS011;7697;51.630;7.484;2022-10-22T14:24:20;3.25;;;1.50;;
15192;SDS011;7697;51.630;7.484;2022-10-22T14:29:23;2.53;;;1.25;;
15192;SDS011;7697;51.630;7.484;2022-10-22T14:34:25;3.03;;;1.65;;
15192;SDS011;7697;51.630;7.484;2022-10-22T14:39:27;3.90;;;1.60;;
15192;SDS011;7697;51.630;7.484;2022-10-22T14:44:30;2.85;;;1.45;;
15192;SDS011;7697;51.630;7.484;2022-10-22T14:49:32;2.88;;;1.52;;
15192;SDS011;7697;51.630;7.484;2022-10-22T14:54:34;2.92;;;1.27;;
15192;SDS011;7697;51.630;7.484;2022-10-22T14:59:37;6.22;;;1.30;;
15192;SDS011;7697;51.630;7.484;2022-10-22T15:04:39;2.08;;;1.50;;
15192;SDS011;7697;51.630;7.484;2022-10-22T15:09:40;4.82;;;1.60;;
15192;SDS011;7697;51.630;7.484;2022-10-22T15:14:43;3.45;;;2.00;;
15192;SDS011;7697;51.630;7.484;2022-10-22T15:19:45;2.40;;;1.35;;
15192;SDS011;7697;51.630;7.484;2022-10-22T15:24:47;5.25;;;1.67;;
15192;SDS011;7697;51.630;7.484;2022-10-22T15:29:50;3.90;;;1.30;;
15192;SDS011;7697;51.630;7.484;2022-10-22T15:34:52;4.13;;;1.42;;
15192;SDS011;7697;51.630;7.484;2022-10-22T15:39:54;2.88;;;1.35;;
15192;SDS011;7697;51.630;7.484;2022-10-22T15:44:57;1.77;;;1.13;;
15192;SDS011;7697;51.630;7.484;2022-10-22T15:50:01;3.60;;;1.50;;
15192;SDS011;7697;51.630;7.484;2022-10-22T15:55:03;3.20;;;1.40;;
15192;SDS011;7697;51.630;7.484;2022-10-22T16:00:08;2.75;;;1.30;;
15192;SDS011;7697;51.630;7.484;2022-10-22T16:05:10;4.68;;;1.58;;
15192;SDS011;7697;51.630;7.484;2022-10-22T16:10:12;5.38;;;1.58;;
15192;SDS011;7697;51.630;7.484;2022-10-22T16:15:15;2.72;;;1.40;;
15192;SDS011;7697;51.630;7.484;2022-10-22T16:20:17;2.20;;;1.55;;
15192;SDS011;7697;51.630;7.484;2022-10-22T16:25:19;2.67;;;1.70;;
15192;SDS011;7697;51.630;7.484;2022-10-22T16:30:22;3.05;;;1.65;;
15192;SDS011;7697;51.630;7.484;2022-10-22T16:35:23;3.92;;;1.70;;
15192;SDS011;7697;51.630;7.484;2022-10-22T16:40:25;4.03;;;2.10;;
15192;SDS011;7697;51.630;7.484;2022-10-22T16:45:29;3.00;;;2.15;;
15192;SDS011;7697;51.630;7.484;2022-10-22T16:50:31;5.22;;;4.43;;
15192;SDS011;7697;51.630;7.484;2022-10-22T16:55:34;4.28;;;2.83;;
15192;SDS011;7697;51.630;7.484;2022-10-22T17:00:37;4.22;;;2.83;;
15192;SDS011;7697;51.630;7.484;2022-10-22T17:05:39;4.55;;;3.80;;
15192;SDS011;7697;51.630;7.484;2022-10-22T17:10:41;3.67;;;3.17;;
15192;SDS011;7697;51.630;7.484;2022-10-22T17:15:44;3.42;;;2.83;;
15192;SDS011;7697;51.630;7.484;2022-10-22T17:20:45;3.88;;;2.67;;
15192;SDS011;7697;51.630;7.484;2022-10-22T17:25:47;4.05;;;2.35;;
15192;SDS011;7697;51.630;7.484;2022-10-22T17:30:50;5.25;;;2.63;;
15192;SDS011;7697;51.630;7.484;2022-10-22T17:36:04;3.58;;;2.90;;
15192;SDS011;7697;51.630;7.484;2022-10-22T17:41:08;5.13;;;3.63;;
15192;SDS011;7697;51.630;7.484;2022-10-22T17:46:18;7.00;;;5.18;;
15192;SDS011;7697;51.630;7.484;2022-10-22T17:51:21;8.35;;;6.10;;
15192;SDS011;7697;51.630;7.484;2022-10-22T17:56:25;9.75;;;6.95;;
15192;SDS011;7697;51.630;7.484;2022-10-22T18:01:31;11.10;;;8.25;;
15192;SDS011;7697;51.630;7.484;2022-10-22T18:06:34;14.20;;;11.73;;
15192;SDS011;7697;51.630;7.484;2022-10-22T18:11:36;16.27;;;12.13;;
15192;SDS011;7697;51.630;7.484;2022-10-22T18:16:39;10.93;;;9.65;;
15192;SDS011;7697;51.630;7.484;2022-10-22T18:21:41;9.73;;;7.95;;
15192;SDS011;7697;51.630;7.484;2022-10-22T18:26:42;7.93;;;6.70;;
15192;SDS011;7697;51.630;7.484;2022-10-22T18:31:46;10.00;;;7.57;;
15192;SDS011;7697;51.630;7.484;2022-10-22T18:36:48;10.35;;;7.65;;
15192;SDS011;7697;51.630;7.484;2022-10-22T18:41:49;7.45;;;6.57;;
15192;SDS011;7697;51.630;7.484;2022-10-22T18:46:52;7.63;;;6.32;;
15192;SDS011;7697;51.630;7.484;2022-10-22T18:51:54;10.75;;;8.02;;
15192;SDS011;7697;51.630;7.484;2022-10-22T18:56:56;13.52;;;7.88;;
15192;SDS011;7697;51.630;7.484;2022-10-22T19:01:59;20.05;;;11.85;;
15192;SDS011;7697;51.630;7.484;2022-10-22T19:07:01;16.33;;;12.45;;
15192;SDS011;7697;51.630;7.484;2022-10-22T19:12:03;12.15;;;9.85;;
15192;SDS011;7697;51.630;7.484;2022-10-22T19:17:07;10.88;;;8.27;;
15192;SDS011;7697;51.630;7.484;2022-10-22T19:22:09;10.60;;;7.68;;
15192;SDS011;7697;51.630;7.484;2022-10-22T19:27:11;10.45;;;8.30;;
15192;SDS011;7697;51.630;7.484;2022-10-22T19:32:14;11.60;;;8.15;;
15192;SDS011;7697;51.630;7.484;2022-10-22T19:37:18;11.50;;;8.07;;
15192;SDS011;7697;51.630;7.484;2022-10-22T19:42:20;10.55;;;7.75;;
15192;SDS011;7697;51.630;7.484;2022-10-22T19:47:23;12.65;;;9.45;;
15192;SDS011;7697;51.630;7.484;2022-10-22T19:52:25;10.18;;;8.70;;
15192;SDS011;7697;51.630;7.484;2022-10-22T19:57:26;10.88;;;7.93;;
15192;SDS011;7697;51.630;7.484;2022-10-22T20:02:30;9.10;;;7.65;;
15192;SDS011;7697;51.630;7.484;2022-10-22T20:07:32;11.63;;;8.93;;
15192;SDS011;7697;51.630;7.484;2022-10-22T20:12:33;10.13;;;8.43;;
15192;SDS011;7697;51.630;7.484;2022-10-22T20:17:36;10.70;;;7.85;;
15192;SDS011;7697;51.630;7.484;2022-10-22T20:22:38;9.93;;;7.60;;
15192;SDS011;7697;51.630;7.484;2022-10-22T20:27:41;8.93;;;7.70;;
15192;SDS011;7697;51.630;7.484;2022-10-22T20:32:44;10.90;;;7.65;;
15192;SDS011;7697;51.630;7.484;2022-10-22T20:37:46;9.00;;;6.70;;
15192;SDS011;7697;51.630;7.484;2022-10-22T20:42:48;8.10;;;6.95;;
15192;SDS011;7697;51.630;7.484;2022-10-22T20:47:51;8.80;;;7.40;;
15192;SDS011;7697;51.630;7.484;2022-10-22T20:52:52;8.65;;;6.47;;
15192;SDS011;7697;51.630;7.484;2022-10-22T20:57:54;7.78;;;6.28;;
15192;SDS011;7697;51.630;7.484;2022-10-22T21:02:57;7.28;;;6.38;;
15192;SDS011;7697;51.630;7.484;2022-10-22T21:07:59;8.98;;;6.78;;
15192;SDS011;7697;51.630;7.484;2022-10-22T21:13:01;11.27;;;6.78;;
15192;SDS011;7697;51.630;7.484;2022-10-22T21:18:04;7.22;;;6.13;;
15192;SDS011;7697;51.630;7.484;2022-10-22T21:23:07;8.30;;;5.55;;
15192;SDS011;7697;51.630;7.484;2022-10-22T21:28:09;6.85;;;5.53;;
15192;SDS011;7697;51.630;7.484;2022-10-22T21:33:12;5.95;;;4.93;;
15192;SDS011;7697;51.630;7.484;2022-10-22T21:38:14;5.47;;;4.93;;
15192;SDS011;7697;51.630;7.484;2022-10-22T21:43:15;5.22;;;4.68;;
15192;SDS011;7697;51.630;7.484;2022-10-22T21:48:19;5.63;;;4.75;;
15192;SDS011;7697;51.630;7.484;2022-10-22T21:53:21;6.53;;;5.22;;
15192;SDS011;7697;51.630;7.484;2022-10-22T21:58:22;6.45;;;4.85;;
15192;SDS011;7697;51.630;7.484;2022-10-22T22:03:25;4.75;;;4.32;;
15192;SDS011;7697;51.630;7.484;2022-10-22T22:08:27;5.30;;;4.65;;
15192;SDS011;7697;51.630;7.484;2022-10-22T22:13:30;4.82;;;4.35;;
15192;SDS011;7697;51.630;7.484;2022-10-22T22:18:34;7.00;;;4.15;;
15192;SDS011;7697;51.630;7.484;2022-10-22T22:23:37;5.80;;;4.40;;
15192;SDS011;7697;51.630;7.484;2022-10-22T22:28:40;7.40;;;4.35;;
15192;SDS011;7697;51.630;7.484;2022-10-22T22:33:43;6.30;;;3.97;;
15192;SDS011;7697;51.630;7.484;2022-10-22T22:38:45;4.93;;;4.32;;
15192;SDS011;7697;51.630;7.484;2022-10-22T22:43:47;5.13;;;4.20;;
15192;SDS011;7697;51.630;7.484;2022-10-22T22:48:50;5.32;;;4.20;;
15192;SDS011;7697;51.630;7.484;2022-10-22T22:53:52;6.65;;;4.38;;
15192;SDS011;7697;51.630;7.484;2022-10-22T22:58:54;8.27;;;4.78;;
15192;SDS011;7697;51.630;7.484;2022-10-22T23:03:57;5.35;;;4.18;;
15192;SDS011;7697;51.630;7.484;2022-10-22T23:09:01;5.18;;;4.43;;
15192;SDS011;7697;51.630;7.484;2022-10-22T23:14:03;5.88;;;4.60;;
15192;SDS011;7697;51.630;7.484;2022-10-22T23:19:08;6.45;;;4.60;;
15192;SDS011;7697;51.630;7.484;2022-10-22T23:24:10;6.53;;;4.82;;
15192;SDS011;7697;51.630;7.484;2022-10-22T23:29:16;4.80;;;4.03;;
15192;SDS011;7697;51.630;7.484;2022-10-22T23:34:21;7.43;;;4.80;;
15192;SDS011;7697;51.630;7.484;2022-10-22T23:39:25;5.10;;;4.30;;
15192;SDS011;7697;51.630;7.484;2022-10-22T23:44:28;5.43;;;3.60;;
15192;SDS011;7697;51.630;7.484;2022-10-22T23:49:31;6.97;;;3.65;;
15192;SDS011;7697;51.630;7.484;2022-10-22T23:54:33;4.35;;;3.30;;
15192;SDS011;7697;51.630;7.484;2022-10-22T23:59:35;5.55;;;3.60;;
